Terminal Aerodrome Forecast
Issued by NWS Indianapolis, IN

Home | Current Version | Previous Version | Text Only | Print | Product List | Glossary On
Versions: 1 2 3 4 5 6 7 8 9 10 11 12 13 14 15 16 17 18 19 20 21 22 23 24 25 26
000
FTUS43 KIND 300500
TAFIND
TAF
KIND 300533Z 3006/3112 30015G22KT P6SM OVC030
     FM301500 34012KT P6SM BKN035
     FM302300 32006KT P6SM BKN035
     FM310300 00000KT P6SM SCT035 SCT250=

USA.gov is the U.S. government's official web portal to all federal, state and local government web resources and services.